Map Display - EPWA to UUDD
(last flight recorded 26-01-2021, 09:55 - Geoff Price)

Aircraft Weights    Units : Maximums
Passengers :   89  
Cargo : kg 5,000 kg
Suggested Fuel Load : kg 25,775 kg
 
     
 
Dry Operating : 35,540 kg    
Total Payload : 6,076 kg 10,900 kg
 
Take Off : 53,627 kg 71,670 kg
 
Expected Landing : 46,332 kg 54,500 kg

Geoff Price,  COMT 4B,  G-APMG,  In Hangar.

Route Distance Previous
Flights
Average
Duration
Average
Fuel Flow
Average
Fuel Use
EPWA - Okecie, Warsaw, Poland
UUDD - Domodedovo, Moscow, Russia
630 nm 8 01:54 3,930 kg/h 7,295 kg

Current weather :-
2021/01/26 21:36
TAF EPWA 252030Z 2521/2621 32010KT 9000 -SN BKN010 BKN018 PROB40
TEMPO 2521/2601 4000 -SN BR BKN007
BECMG 2602/2605 26013KT BKN014 BKN020
TEMPO 2603/2621 27016G27KT BKN010
2021/01/26 18:00
TAF UUDD 261655Z 2618/2724 19007MPS 6000 -SN FEW004 OVC016 TX02/2618Z TNM02/2715Z
TEMPO 2618/2709 20010G15MPS 1000 SHSN SCT006 BKN012CB
TEMPO 2718/2724 10005MPS 0600 +SHSN BKN004 BKN012CB PROB40
TEMPO 2718/2724 -FZRA

Back to Virtual Airline